sensor_id;sensor_type;location;lat;lon;timestamp;temperature;humidity
78315;SHT31;68596;52.080;4.662;2023-04-29T00:02:20;12.08;74.88
78315;SHT31;68596;52.080;4.662;2023-04-29T00:05:04;12.06;74.52
78315;SHT31;68596;52.080;4.662;2023-04-29T00:07:49;12.06;74.38
78315;SHT31;68596;52.080;4.662;2023-04-29T00:10:33;11.99;74.39
78315;SHT31;68596;52.080;4.662;2023-04-29T00:13:17;11.96;74.40
78315;SHT31;68596;52.080;4.662;2023-04-29T00:16:01;11.98;74.31
78315;SHT31;68596;52.080;4.662;2023-04-29T00:18:45;11.96;74.23
78315;SHT31;68596;52.080;4.662;2023-04-29T00:21:29;12.03;74.12
78315;SHT31;68596;52.080;4.662;2023-04-29T00:24:14;12.02;73.89
78315;SHT31;68596;52.080;4.662;2023-04-29T00:26:59;11.98;73.77
78315;SHT31;68596;52.080;4.662;2023-04-29T00:29:45;11.99;73.91
78315;SHT31;68596;52.080;4.662;2023-04-29T00:32:29;11.98;73.74
78315;SHT31;68596;52.080;4.662;2023-04-29T00:35:13;11.96;73.55
78315;SHT31;68596;52.080;4.662;2023-04-29T00:37:58;11.98;73.76
78315;SHT31;68596;52.080;4.662;2023-04-29T00:40:42;11.95;73.65
78315;SHT31;68596;52.080;4.662;2023-04-29T00:43:26;11.96;73.86
78315;SHT31;68596;52.080;4.662;2023-04-29T00:46:10;11.92;74.07
78315;SHT31;68596;52.080;4.662;2023-04-29T00:48:55;11.85;74.15
78315;SHT31;68596;52.080;4.662;2023-04-29T00:51:40;11.88;73.98
78315;SHT31;68596;52.080;4.662;2023-04-29T00:54:25;11.86;74.38
78315;SHT31;68596;52.080;4.662;2023-04-29T00:57:09;11.86;74.38
78315;SHT31;68596;52.080;4.662;2023-04-29T00:59:54;11.89;74.21
78315;SHT31;68596;52.080;4.662;2023-04-29T01:02:38;11.90;74.27
78315;SHT31;68596;52.080;4.662;2023-04-29T01:05:23;11.95;74.20
78315;SHT31;68596;52.080;4.662;2023-04-29T01:11:11;11.96;74.44
78315;SHT31;68596;52.080;4.662;2023-04-29T01:14:01;11.92;74.69
78315;SHT31;68596;52.080;4.662;2023-04-29T01:16:58;11.86;74.74
78315;SHT31;68596;52.080;4.662;2023-04-29T01:19:53;11.86;74.60
78315;SHT31;68596;52.080;4.662;2023-04-29T01:22:38;11.88;74.92
78315;SHT31;68596;52.080;4.662;2023-04-29T01:25:22;11.85;74.34
78315;SHT31;68596;52.080;4.662;2023-04-29T01:28:39;11.92;74.76
78315;SHT31;68596;52.080;4.662;2023-04-29T01:31:30;11.92;74.65
78315;SHT31;68596;52.080;4.662;2023-04-29T01:34:35;11.96;74.53
78315;SHT31;68596;52.080;4.662;2023-04-29T01:37:31;11.99;74.53
78315;SHT31;68596;52.080;4.662;2023-04-29T01:40:37;11.98;74.35
78315;SHT31;68596;52.080;4.662;2023-04-29T01:43:29;11.99;74.84
78315;SHT31;68596;52.080;4.662;2023-04-29T01:46:17;11.95;74.58
78315;SHT31;68596;52.080;4.662;2023-04-29T01:49:06;11.96;74.83
78315;SHT31;68596;52.080;4.662;2023-04-29T01:51:50;11.95;74.65
78315;SHT31;68596;52.080;4.662;2023-04-29T01:54:34;11.92;74.26
78315;SHT31;68596;52.080;4.662;2023-04-29T01:57:19;11.95;74.13
78315;SHT31;68596;52.080;4.662;2023-04-29T02:00:03;12.00;73.65
78315;SHT31;68596;52.080;4.662;2023-04-29T02:02:47;12.06;73.77
78315;SHT31;68596;52.080;4.662;2023-04-29T02:05:31;12.06;73.40
78315;SHT31;68596;52.080;4.662;2023-04-29T02:08:17;12.10;73.57
78315;SHT31;68596;52.080;4.662;2023-04-29T02:11:01;12.12;73.06
78315;SHT31;68596;52.080;4.662;2023-04-29T02:13:45;12.10;73.24
78315;SHT31;68596;52.080;4.662;2023-04-29T02:16:30;12.12;73.05
78315;SHT31;68596;52.080;4.662;2023-04-29T02:19:14;12.09;73.05
78315;SHT31;68596;52.080;4.662;2023-04-29T02:21:59;12.10;73.14
78315;SHT31;68596;52.080;4.662;2023-04-29T02:24:43;12.12;72.93
78315;SHT31;68596;52.080;4.662;2023-04-29T02:27:27;12.12;72.99
78315;SHT31;68596;52.080;4.662;2023-04-29T02:30:11;12.13;72.67
78315;SHT31;68596;52.080;4.662;2023-04-29T02:32:55;12.12;72.85
78315;SHT31;68596;52.080;4.662;2023-04-29T02:35:40;12.10;72.87
78315;SHT31;68596;52.080;4.662;2023-04-29T02:38:24;12.12;72.84
78315;SHT31;68596;52.080;4.662;2023-04-29T02:41:08;12.16;72.65
78315;SHT31;68596;52.080;4.662;2023-04-29T02:43:52;12.19;72.97
78315;SHT31;68596;52.080;4.662;2023-04-29T02:46:36;12.18;72.95
78315;SHT31;68596;52.080;4.662;2023-04-29T02:49:22;12.19;72.67
78315;SHT31;68596;52.080;4.662;2023-04-29T02:52:06;12.22;72.74
78315;SHT31;68596;52.080;4.662;2023-04-29T02:54:50;12.26;72.60
78315;SHT31;68596;52.080;4.662;2023-04-29T02:57:34;12.26;72.69
78315;SHT31;68596;52.080;4.662;2023-04-29T03:00:18;12.28;72.44
78315;SHT31;68596;52.080;4.662;2023-04-29T03:03:02;12.30;72.31
78315;SHT31;68596;52.080;4.662;2023-04-29T03:05:46;12.29;72.40
78315;SHT31;68596;52.080;4.662;2023-04-29T03:08:31;12.29;72.33
78315;SHT31;68596;52.080;4.662;2023-04-29T03:11:15;12.32;72.20
78315;SHT31;68596;52.080;4.662;2023-04-29T03:13:59;12.32;72.13
78315;SHT31;68596;52.080;4.662;2023-04-29T03:16:44;12.36;71.81
78315;SHT31;68596;52.080;4.662;2023-04-29T03:19:28;12.36;71.63
78315;SHT31;68596;52.080;4.662;2023-04-29T03:22:12;12.40;71.60
78315;SHT31;68596;52.080;4.662;2023-04-29T03:24:56;12.37;71.54
78315;SHT31;68596;52.080;4.662;2023-04-29T03:27:40;12.33;71.59
78315;SHT31;68596;52.080;4.662;2023-04-29T03:30:25;12.33;71.68
78315;SHT31;68596;52.080;4.662;2023-04-29T03:33:09;12.34;71.58
78315;SHT31;68596;52.080;4.662;2023-04-29T03:35:53;12.34;71.92
78315;SHT31;68596;52.080;4.662;2023-04-29T03:38:38;12.34;71.84
78315;SHT31;68596;52.080;4.662;2023-04-29T03:41:22;12.37;71.62
78315;SHT31;68596;52.080;4.662;2023-04-29T03:44:07;12.36;71.68
78315;SHT31;68596;52.080;4.662;2023-04-29T03:46:51;12.39;71.53
78315;SHT31;68596;52.080;4.662;2023-04-29T03:49:35;12.37;71.51
78315;SHT31;68596;52.080;4.662;2023-04-29T03:52:19;12.37;71.52
78315;SHT31;68596;52.080;4.662;2023-04-29T03:55:03;12.36;71.58
78315;SHT31;68596;52.080;4.662;2023-04-29T03:57:48;12.36;71.63
78315;SHT31;68596;52.080;4.662;2023-04-29T04:00:32;12.36;71.54
78315;SHT31;68596;52.080;4.662;2023-04-29T04:03:16;12.40;71.65
78315;SHT31;68596;52.080;4.662;2023-04-29T04:06:00;12.39;71.50
78315;SHT31;68596;52.080;4.662;2023-04-29T04:08:44;12.37;71.52
78315;SHT31;68596;52.080;4.662;2023-04-29T04:11:28;12.40;71.52
78315;SHT31;68596;52.080;4.662;2023-04-29T04:14:12;12.39;71.46
78315;SHT31;68596;52.080;4.662;2023-04-29T04:16:56;12.41;71.58
78315;SHT31;68596;52.080;4.662;2023-04-29T04:19:40;12.36;71.74
78315;SHT31;68596;52.080;4.662;2023-04-29T04:22:24;12.37;72.13
78315;SHT31;68596;52.080;4.662;2023-04-29T04:25:09;12.37;72.09
78315;SHT31;68596;52.080;4.662;2023-04-29T04:27:53;12.32;72.24
78315;SHT31;68596;52.080;4.662;2023-04-29T04:30:37;12.28;72.29
78315;SHT31;68596;52.080;4.662;2023-04-29T04:33:21;12.32;72.66
78315;SHT31;68596;52.080;4.662;2023-04-29T04:36:05;12.30;72.90
78315;SHT31;68596;52.080;4.662;2023-04-29T04:38:50;12.33;72.85
78315;SHT31;68596;52.080;4.662;2023-04-29T04:41:34;12.33;73.16
78315;SHT31;68596;52.080;4.662;2023-04-29T04:44:18;12.34;73.09
78315;SHT31;68596;52.080;4.662;2023-04-29T04:47:02;12.32;73.44
78315;SHT31;68596;52.080;4.662;2023-04-29T04:49:47;12.34;73.59
78315;SHT31;68596;52.080;4.662;2023-04-29T04:52:32;12.34;73.53
78315;SHT31;68596;52.080;4.662;2023-04-29T04:55:17;12.39;73.26
78315;SHT31;68596;52.080;4.662;2023-04-29T04:58:01;12.37;73.29
78315;SHT31;68596;52.080;4.662;2023-04-29T05:00:45;12.40;73.11
78315;SHT31;68596;52.080;4.662;2023-04-29T05:03:29;12.41;73.14
78315;SHT31;68596;52.080;4.662;2023-04-29T05:06:13;12.44;72.80
78315;SHT31;68596;52.080;4.662;2023-04-29T05:09:00;12.47;73.02
78315;SHT31;68596;52.080;4.662;2023-04-29T05:11:44;12.51;72.83
78315;SHT31;68596;52.080;4.662;2023-04-29T05:14:29;12.50;72.88
78315;SHT31;68596;52.080;4.662;2023-04-29T05:17:13;12.53;72.43
78315;SHT31;68596;52.080;4.662;2023-04-29T05:19:57;12.51;72.44
78315;SHT31;68596;52.080;4.662;2023-04-29T05:22:42;12.59;72.47
78315;SHT31;68596;52.080;4.662;2023-04-29T05:25:26;12.57;72.23
78315;SHT31;68596;52.080;4.662;2023-04-29T05:28:10;12.57;72.19
78315;SHT31;68596;52.080;4.662;2023-04-29T05:30:54;12.59;72.18
78315;SHT31;68596;52.080;4.662;2023-04-29T05:33:39;12.61;72.28
78315;SHT31;68596;52.080;4.662;2023-04-29T05:36:23;12.60;72.61
78315;SHT31;68596;52.080;4.662;2023-04-29T05:39:07;12.61;72.25
78315;SHT31;68596;52.080;4.662;2023-04-29T05:41:51;12.63;72.21
78315;SHT31;68596;52.080;4.662;2023-04-29T05:44:35;12.60;72.08
78315;SHT31;68596;52.080;4.662;2023-04-29T05:47:19;12.60;72.20
78315;SHT31;68596;52.080;4.662;2023-04-29T05:50:03;12.63;71.91
78315;SHT31;68596;52.080;4.662;2023-04-29T05:52:48;12.64;72.06
78315;SHT31;68596;52.080;4.662;2023-04-29T05:55:32;12.63;71.98
78315;SHT31;68596;52.080;4.662;2023-04-29T05:58:16;12.65;72.20
78315;SHT31;68596;52.080;4.662;2023-04-29T06:01:00;12.63;71.96
78315;SHT31;68596;52.080;4.662;2023-04-29T06:03:44;12.63;71.91
78315;SHT31;68596;52.080;4.662;2023-04-29T06:06:28;12.67;71.72
78315;SHT31;68596;52.080;4.662;2023-04-29T06:09:13;12.67;71.86
78315;SHT31;68596;52.080;4.662;2023-04-29T06:12:01;12.77;71.80
78315;SHT31;68596;52.080;4.662;2023-04-29T06:14:46;12.87;71.66
78315;SHT31;68596;52.080;4.662;2023-04-29T06:17:30;12.90;71.36
78315;SHT31;68596;52.080;4.662;2023-04-29T06:20:15;13.00;70.90
78315;SHT31;68596;52.080;4.662;2023-04-29T06:22:59;13.04;71.32
78315;SHT31;68596;52.080;4.662;2023-04-29T06:25:43;13.12;70.75
78315;SHT31;68596;52.080;4.662;2023-04-29T06:28:27;13.21;70.84
78315;SHT31;68596;52.080;4.662;2023-04-29T06:31:12;13.32;69.82
78315;SHT31;68596;52.080;4.662;2023-04-29T06:33:57;13.42;68.69
78315;SHT31;68596;52.080;4.662;2023-04-29T06:36:42;13.42;69.72
78315;SHT31;68596;52.080;4.662;2023-04-29T06:39:26;13.49;68.79
78315;SHT31;68596;52.080;4.662;2023-04-29T06:42:10;13.53;68.71
78315;SHT31;68596;52.080;4.662;2023-04-29T06:44:54;13.55;68.90
78315;SHT31;68596;52.080;4.662;2023-04-29T06:47:38;13.59;68.55
78315;SHT31;68596;52.080;4.662;2023-04-29T06:50:22;13.65;68.74
78315;SHT31;68596;52.080;4.662;2023-04-29T06:53:06;13.73;69.08
78315;SHT31;68596;52.080;4.662;2023-04-29T06:55:50;13.79;68.87
78315;SHT31;68596;52.080;4.662;2023-04-29T06:58:34;13.85;68.86
78315;SHT31;68596;52.080;4.662;2023-04-29T07:01:18;13.91;67.70
78315;SHT31;68596;52.080;4.662;2023-04-29T07:04:03;13.95;68.05
78315;SHT31;68596;52.080;4.662;2023-04-29T07:06:48;13.97;66.98
78315;SHT31;68596;52.080;4.662;2023-04-29T07:09:32;13.99;67.61
78315;SHT31;68596;52.080;4.662;2023-04-29T07:12:16;14.03;66.88
78315;SHT31;68596;52.080;4.662;2023-04-29T07:15:01;14.03;66.76
78315;SHT31;68596;52.080;4.662;2023-04-29T07:17:45;14.10;65.58
78315;SHT31;68596;52.080;4.662;2023-04-29T07:20:29;14.09;66.32
78315;SHT31;68596;52.080;4.662;2023-04-29T07:23:14;14.06;67.59
78315;SHT31;68596;52.080;4.662;2023-04-29T07:25:58;14.10;67.29
78315;SHT31;68596;52.080;4.662;2023-04-29T07:28:43;14.17;66.68
78315;SHT31;68596;52.080;4.662;2023-04-29T07:31:27;14.20;67.25
78315;SHT31;68596;52.080;4.662;2023-04-29T07:34:12;14.24;67.20
78315;SHT31;68596;52.080;4.662;2023-04-29T07:36:56;14.31;65.48
78315;SHT31;68596;52.080;4.662;2023-04-29T07:39:41;14.38;65.71
78315;SHT31;68596;52.080;4.662;2023-04-29T07:42:25;14.37;65.10
78315;SHT31;68596;52.080;4.662;2023-04-29T07:45:09;14.41;65.11
78315;SHT31;68596;52.080;4.662;2023-04-29T07:47:54;14.40;65.33
78315;SHT31;68596;52.080;4.662;2023-04-29T07:50:38;14.38;64.95
78315;SHT31;68596;52.080;4.662;2023-04-29T07:53:22;14.42;64.36
78315;SHT31;68596;52.080;4.662;2023-04-29T07:56:07;14.38;64.37
78315;SHT31;68596;52.080;4.662;2023-04-29T07:58:51;14.36;64.83
78315;SHT31;68596;52.080;4.662;2023-04-29T08:01:35;14.40;63.70
78315;SHT31;68596;52.080;4.662;2023-04-29T08:04:19;14.37;65.23
78315;SHT31;68596;52.080;4.662;2023-04-29T08:07:03;14.34;64.70
78315;SHT31;68596;52.080;4.662;2023-04-29T08:09:47;14.38;64.94
78315;SHT31;68596;52.080;4.662;2023-04-29T08:12:31;14.42;65.41
78315;SHT31;68596;52.080;4.662;2023-04-29T08:15:16;14.47;65.11
78315;SHT31;68596;52.080;4.662;2023-04-29T08:18:01;14.52;64.51
78315;SHT31;68596;52.080;4.662;2023-04-29T08:20:46;14.58;65.22
78315;SHT31;68596;52.080;4.662;2023-04-29T08:23:32;14.65;63.75
78315;SHT31;68596;52.080;4.662;2023-04-29T08:26:16;14.68;65.04
78315;SHT31;68596;52.080;4.662;2023-04-29T08:29:01;14.74;63.84
78315;SHT31;68596;52.080;4.662;2023-04-29T08:31:45;14.81;64.29
78315;SHT31;68596;52.080;4.662;2023-04-29T08:34:30;14.82;63.93
78315;SHT31;68596;52.080;4.662;2023-04-29T08:37:14;14.92;62.20
78315;SHT31;68596;52.080;4.662;2023-04-29T08:39:59;14.93;62.88
78315;SHT31;68596;52.080;4.662;2023-04-29T08:42:44;14.89;62.36
78315;SHT31;68596;52.080;4.662;2023-04-29T08:45:28;14.91;63.75
78315;SHT31;68596;52.080;4.662;2023-04-29T08:48:18;14.96;62.13
78315;SHT31;68596;52.080;4.662;2023-04-29T08:51:02;15.02;61.19
78315;SHT31;68596;52.080;4.662;2023-04-29T08:53:47;14.98;61.96
78315;SHT31;68596;52.080;4.662;2023-04-29T08:56:31;15.02;61.27
78315;SHT31;68596;52.080;4.662;2023-04-29T08:59:16;15.06;61.41
78315;SHT31;68596;52.080;4.662;2023-04-29T09:02:05;15.11;62.36
78315;SHT31;68596;52.080;4.662;2023-04-29T09:05:04;15.18;63.45
78315;SHT31;68596;52.080;4.662;2023-04-29T09:07:50;15.29;62.44
78315;SHT31;68596;52.080;4.662;2023-04-29T09:10:37;15.33;63.68
78315;SHT31;68596;52.080;4.662;2023-04-29T09:13:29;15.42;61.90
78315;SHT31;68596;52.080;4.662;2023-04-29T09:16:13;15.43;60.88
78315;SHT31;68596;52.080;4.662;2023-04-29T09:18:57;15.46;63.12
78315;SHT31;68596;52.080;4.662;2023-04-29T09:21:53;15.52;63.86
78315;SHT31;68596;52.080;4.662;2023-04-29T09:24:37;15.66;61.84
78315;SHT31;68596;52.080;4.662;2023-04-29T09:27:26;15.77;62.52
78315;SHT31;68596;52.080;4.662;2023-04-29T09:30:12;15.82;61.99
78315;SHT31;68596;52.080;4.662;2023-04-29T09:33:09;15.82;62.90
78315;SHT31;68596;52.080;4.662;2023-04-29T09:35:53;15.86;62.53
78315;SHT31;68596;52.080;4.662;2023-04-29T09:38:52;15.82;62.70
78315;SHT31;68596;52.080;4.662;2023-04-29T09:41:38;15.82;62.55
78315;SHT31;68596;52.080;4.662;2023-04-29T09:44:25;15.82;62.25
78315;SHT31;68596;52.080;4.662;2023-04-29T09:47:10;15.83;62.53
78315;SHT31;68596;52.080;4.662;2023-04-29T09:50:10;15.84;62.67
78315;SHT31;68596;52.080;4.662;2023-04-29T09:52:57;15.83;62.53
78315;SHT31;68596;52.080;4.662;2023-04-29T09:56:01;15.77;62.25
78315;SHT31;68596;52.080;4.662;2023-04-29T09:58:45;15.84;62.31
78315;SHT31;68596;52.080;4.662;2023-04-29T10:01:29;15.83;61.99
78315;SHT31;68596;52.080;4.662;2023-04-29T10:04:16;15.86;61.64
78315;SHT31;68596;52.080;4.662;2023-04-29T10:07:01;15.91;62.05
78315;SHT31;68596;52.080;4.662;2023-04-29T10:09:46;15.96;62.14
78315;SHT31;68596;52.080;4.662;2023-04-29T10:12:34;16.03;62.54
78315;SHT31;68596;52.080;4.662;2023-04-29T10:15:30;16.13;62.22
78315;SHT31;68596;52.080;4.662;2023-04-29T10:18:20;16.20;61.72
78315;SHT31;68596;52.080;4.662;2023-04-29T10:21:06;16.25;62.06
78315;SHT31;68596;52.080;4.662;2023-04-29T10:23:53;16.24;61.95
78315;SHT31;68596;52.080;4.662;2023-04-29T10:26:42;16.25;61.99
78315;SHT31;68596;52.080;4.662;2023-04-29T10:29:29;16.32;62.45
78315;SHT31;68596;52.080;4.662;2023-04-29T10:32:18;16.38;62.90
78315;SHT31;68596;52.080;4.662;2023-04-29T10:35:07;16.44;62.20
78315;SHT31;68596;52.080;4.662;2023-04-29T10:37:54;16.48;61.37
78315;SHT31;68596;52.080;4.662;2023-04-29T10:40:44;16.48;60.47
78315;SHT31;68596;52.080;4.662;2023-04-29T10:43:31;16.48;60.75
78315;SHT31;68596;52.080;4.662;2023-04-29T10:49:01;16.58;61.22
78315;SHT31;68596;52.080;4.662;2023-04-29T10:51:46;16.62;58.02
78315;SHT31;68596;52.080;4.662;2023-04-29T10:54:30;16.71;60.29
78315;SHT31;68596;52.080;4.662;2023-04-29T10:57:19;16.72;59.47
78315;SHT31;68596;52.080;4.662;2023-04-29T11:00:04;16.75;60.06
78315;SHT31;68596;52.080;4.662;2023-04-29T11:02:48;16.79;60.99
78315;SHT31;68596;52.080;4.662;2023-04-29T11:05:33;16.90;60.87
78315;SHT31;68596;52.080;4.662;2023-04-29T11:08:22;16.95;60.68
78315;SHT31;68596;52.080;4.662;2023-04-29T11:11:06;17.00;59.42
78315;SHT31;68596;52.080;4.662;2023-04-29T11:13:51;17.03;58.85
78315;SHT31;68596;52.080;4.662;2023-04-29T11:16:36;17.06;59.60
78315;SHT31;68596;52.080;4.662;2023-04-29T11:19:25;17.09;60.33
78315;SHT31;68596;52.080;4.662;2023-04-29T11:22:13;17.12;56.69
78315;SHT31;68596;52.080;4.662;2023-04-29T11:25:04;17.15;58.61
78315;SHT31;68596;52.080;4.662;2023-04-29T11:27:50;17.19;59.93
78315;SHT31;68596;52.080;4.662;2023-04-29T11:30:34;17.19;59.51
78315;SHT31;68596;52.080;4.662;2023-04-29T11:33:20;17.19;59.26
78315;SHT31;68596;52.080;4.662;2023-04-29T11:36:04;17.24;58.93
78315;SHT31;68596;52.080;4.662;2023-04-29T11:38:48;17.30;57.97
78315;SHT31;68596;52.080;4.662;2023-04-29T11:41:33;17.33;58.55
78315;SHT31;68596;52.080;4.662;2023-04-29T11:44:21;17.36;58.44
78315;SHT31;68596;52.080;4.662;2023-04-29T11:47:06;17.36;58.14
78315;SHT31;68596;52.080;4.662;2023-04-29T11:49:50;17.34;58.31
78315;SHT31;68596;52.080;4.662;2023-04-29T11:52:37;17.33;58.41
78315;SHT31;68596;52.080;4.662;2023-04-29T11:55:21;17.34;57.22
78315;SHT31;68596;52.080;4.662;2023-04-29T11:58:05;17.39;57.97
78315;SHT31;68596;52.080;4.662;2023-04-29T12:00:50;17.34;58.43
78315;SHT31;68596;52.080;4.662;2023-04-29T12:03:35;17.36;58.39
78315;SHT31;68596;52.080;4.662;2023-04-29T12:06:19;17.43;58.04
78315;SHT31;68596;52.080;4.662;2023-04-29T12:09:03;17.40;57.98
78315;SHT31;68596;52.080;4.662;2023-04-29T12:11:48;17.36;58.45
78315;SHT31;68596;52.080;4.662;2023-04-29T12:14:33;17.37;57.62
78315;SHT31;68596;52.080;4.662;2023-04-29T12:17:18;17.40;58.13
78315;SHT31;68596;52.080;4.662;2023-04-29T12:20:02;17.41;56.51
78315;SHT31;68596;52.080;4.662;2023-04-29T12:22:47;17.47;58.54
78315;SHT31;68596;52.080;4.662;2023-04-29T12:25:31;17.54;57.00
78315;SHT31;68596;52.080;4.662;2023-04-29T12:28:15;17.54;58.27
78315;SHT31;68596;52.080;4.662;2023-04-29T12:30:59;17.50;58.92
78315;SHT31;68596;52.080;4.662;2023-04-29T12:33:44;17.49;58.90
78315;SHT31;68596;52.080;4.662;2023-04-29T12:36:30;17.47;59.21
78315;SHT31;68596;52.080;4.662;2023-04-29T12:39:15;17.55;57.74
78315;SHT31;68596;52.080;4.662;2023-04-29T12:42:00;17.55;59.60
78315;SHT31;68596;52.080;4.662;2023-04-29T12:44:46;17.55;58.73
78315;SHT31;68596;52.080;4.662;2023-04-29T12:47:31;17.54;58.50
78315;SHT31;68596;52.080;4.662;2023-04-29T12:50:19;17.61;59.30
78315;SHT31;68596;52.080;4.662;2023-04-29T12:53:05;17.66;58.00
78315;SHT31;68596;52.080;4.662;2023-04-29T12:55:50;17.66;58.57
78315;SHT31;68596;52.080;4.662;2023-04-29T12:58:37;17.70;57.90
78315;SHT31;68596;52.080;4.662;2023-04-29T13:01:21;17.66;58.32
78315;SHT31;68596;52.080;4.662;2023-04-29T13:04:05;17.59;57.87
78315;SHT31;68596;52.080;4.662;2023-04-29T13:06:51;17.60;58.60
78315;SHT31;68596;52.080;4.662;2023-04-29T13:09:41;17.63;58.71
78315;SHT31;68596;52.080;4.662;2023-04-29T13:12:26;17.67;57.14
78315;SHT31;68596;52.080;4.662;2023-04-29T13:15:10;17.70;58.48
78315;SHT31;68596;52.080;4.662;2023-04-29T13:17:55;17.68;59.01
78315;SHT31;68596;52.080;4.662;2023-04-29T13:20:41;17.68;57.33
78315;SHT31;68596;52.080;4.662;2023-04-29T13:23:25;17.63;58.98
78315;SHT31;68596;52.080;4.662;2023-04-29T13:26:10;17.61;57.57
78315;SHT31;68596;52.080;4.662;2023-04-29T13:28:55;17.60;57.56
78315;SHT31;68596;52.080;4.662;2023-04-29T13:31:39;17.60;58.01
78315;SHT31;68596;52.080;4.662;2023-04-29T13:34:23;17.57;58.14
78315;SHT31;68596;52.080;4.662;2023-04-29T13:37:08;17.60;57.94
78315;SHT31;68596;52.080;4.662;2023-04-29T13:39:52;17.66;58.76
78315;SHT31;68596;52.080;4.662;2023-04-29T13:42:36;17.67;57.02
78315;SHT31;68596;52.080;4.662;2023-04-29T13:45:20;17.67;56.16
78315;SHT31;68596;52.080;4.662;2023-04-29T13:48:05;17.66;57.62
78315;SHT31;68596;52.080;4.662;2023-04-29T13:50:49;17.66;56.92
78315;SHT31;68596;52.080;4.662;2023-04-29T13:53:33;17.66;57.80
78315;SHT31;68596;52.080;4.662;2023-04-29T13:56:17;17.64;58.54
78315;SHT31;68596;52.080;4.662;2023-04-29T13:59:01;17.66;57.63
78315;SHT31;68596;52.080;4.662;2023-04-29T14:01:45;17.66;57.02
78315;SHT31;68596;52.080;4.662;2023-04-29T14:04:29;17.63;57.47
78315;SHT31;68596;52.080;4.662;2023-04-29T14:07:14;17.59;58.20
78315;SHT31;68596;52.080;4.662;2023-04-29T14:09:59;17.63;57.04
78315;SHT31;68596;52.080;4.662;2023-04-29T14:12:43;17.63;56.08
78315;SHT31;68596;52.080;4.662;2023-04-29T14:15:27;17.59;56.34
78315;SHT31;68596;52.080;4.662;2023-04-29T14:18:11;17.59;56.93
78315;SHT31;68596;52.080;4.662;2023-04-29T14:20:56;17.55;58.02
78315;SHT31;68596;52.080;4.662;2023-04-29T14:23:42;17.53;56.96
78315;SHT31;68596;52.080;4.662;2023-04-29T14:26:26;17.49;56.17
78315;SHT31;68596;52.080;4.662;2023-04-29T14:29:11;17.36;57.91
78315;SHT31;68596;52.080;4.662;2023-04-29T14:31:56;17.30;56.98
78315;SHT31;68596;52.080;4.662;2023-04-29T14:34:40;17.31;57.58
78315;SHT31;68596;52.080;4.662;2023-04-29T14:37:25;17.30;57.54
78315;SHT31;68596;52.080;4.662;2023-04-29T14:40:10;17.29;57.27
78315;SHT31;68596;52.080;4.662;2023-04-29T14:42:54;17.29;56.87
78315;SHT31;68596;52.080;4.662;2023-04-29T14:45:38;17.22;57.21
78315;SHT31;68596;52.080;4.662;2023-04-29T14:48:23;17.17;57.76
78315;SHT31;68596;52.080;4.662;2023-04-29T14:51:08;17.17;57.22
78315;SHT31;68596;52.080;4.662;2023-04-29T14:53:51;17.17;57.56
78315;SHT31;68596;52.080;4.662;2023-04-29T14:56:36;17.17;57.37
78315;SHT31;68596;52.080;4.662;2023-04-29T14:59:20;17.20;57.04
78315;SHT31;68596;52.080;4.662;2023-04-29T15:02:04;17.16;56.98
78315;SHT31;68596;52.080;4.662;2023-04-29T15:04:48;17.13;57.53
78315;SHT31;68596;52.080;4.662;2023-04-29T15:07:32;17.16;56.28
78315;SHT31;68596;52.080;4.662;2023-04-29T15:10:16;17.15;56.69
78315;SHT31;68596;52.080;4.662;2023-04-29T15:13:00;17.15;57.32
78315;SHT31;68596;52.080;4.662;2023-04-29T15:15:45;17.13;56.67
78315;SHT31;68596;52.080;4.662;2023-04-29T15:18:29;17.15;56.91
78315;SHT31;68596;52.080;4.662;2023-04-29T15:21:13;17.12;56.27
78315;SHT31;68596;52.080;4.662;2023-04-29T15:23:58;17.09;56.57
78315;SHT31;68596;52.080;4.662;2023-04-29T15:26:42;17.07;57.36
78315;SHT31;68596;52.080;4.662;2023-04-29T15:29:26;17.10;56.72
78315;SHT31;68596;52.080;4.662;2023-04-29T15:32:11;17.10;56.37
78315;SHT31;68596;52.080;4.662;2023-04-29T15:35:01;17.02;56.32
78315;SHT31;68596;52.080;4.662;2023-04-29T15:37:45;16.96;56.64
78315;SHT31;68596;52.080;4.662;2023-04-29T15:40:29;16.92;56.56
78315;SHT31;68596;52.080;4.662;2023-04-29T15:43:13;16.90;56.87
78315;SHT31;68596;52.080;4.662;2023-04-29T15:45:58;16.85;55.75
78315;SHT31;68596;52.080;4.662;2023-04-29T15:48:42;16.80;56.71
78315;SHT31;68596;52.080;4.662;2023-04-29T15:51:27;16.79;56.68
78315;SHT31;68596;52.080;4.662;2023-04-29T15:54:11;16.73;55.22
78315;SHT31;68596;52.080;4.662;2023-04-29T15:56:55;16.68;56.28
78315;SHT31;68596;52.080;4.662;2023-04-29T15:59:39;16.66;56.08
78315;SHT31;68596;52.080;4.662;2023-04-29T16:02:24;16.68;56.91
78315;SHT31;68596;52.080;4.662;2023-04-29T16:05:08;16.71;54.99
78315;SHT31;68596;52.080;4.662;2023-04-29T16:07:52;16.69;53.88
78315;SHT31;68596;52.080;4.662;2023-04-29T16:10:36;16.65;54.68
78315;SHT31;68596;52.080;4.662;2023-04-29T16:13:20;16.65;54.89
78315;SHT31;68596;52.080;4.662;2023-04-29T16:16:04;16.59;55.62
78315;SHT31;68596;52.080;4.662;2023-04-29T16:18:49;16.59;54.36
78315;SHT31;68596;52.080;4.662;2023-04-29T16:21:33;16.61;54.75
78315;SHT31;68596;52.080;4.662;2023-04-29T16:24:17;16.59;54.35
78315;SHT31;68596;52.080;4.662;2023-04-29T16:27:01;16.55;54.03
78315;SHT31;68596;52.080;4.662;2023-04-29T16:29:46;16.52;53.55
78315;SHT31;68596;52.080;4.662;2023-04-29T16:32:30;16.48;53.06
78315;SHT31;68596;52.080;4.662;2023-04-29T16:35:16;16.45;53.52
78315;SHT31;68596;52.080;4.662;2023-04-29T16:38:00;16.48;51.67
78315;SHT31;68596;52.080;4.662;2023-04-29T16:40:44;16.41;52.98
78315;SHT31;68596;52.080;4.662;2023-04-29T16:43:28;16.38;53.78
78315;SHT31;68596;52.080;4.662;2023-04-29T16:46:13;16.35;52.90
78315;SHT31;68596;52.080;4.662;2023-04-29T16:48:58;16.34;52.30
78315;SHT31;68596;52.080;4.662;2023-04-29T16:51:42;16.26;53.30
78315;SHT31;68596;52.080;4.662;2023-04-29T16:54:26;16.24;52.48
78315;SHT31;68596;52.080;4.662;2023-04-29T16:57:10;16.21;52.40
78315;SHT31;68596;52.080;4.662;2023-04-29T16:59:54;16.17;52.53
78315;SHT31;68596;52.080;4.662;2023-04-29T17:02:39;16.05;52.29
78315;SHT31;68596;52.080;4.662;2023-04-29T17:05:25;15.98;51.99
78315;SHT31;68596;52.080;4.662;2023-04-29T17:08:10;15.89;52.52
78315;SHT31;68596;52.080;4.662;2023-04-29T17:10:54;15.84;52.67
78315;SHT31;68596;52.080;4.662;2023-04-29T17:13:38;15.82;52.55
78315;SHT31;68596;52.080;4.662;2023-04-29T17:16:22;15.77;51.96
78315;SHT31;68596;52.080;4.662;2023-04-29T17:19:08;15.73;53.46
78315;SHT31;68596;52.080;4.662;2023-04-29T17:21:53;15.69;52.92
78315;SHT31;68596;52.080;4.662;2023-04-29T17:24:37;15.64;52.56
78315;SHT31;68596;52.080;4.662;2023-04-29T17:27:21;15.59;53.94
78315;SHT31;68596;52.080;4.662;2023-04-29T17:30:06;15.59;53.23